createdAt,value
2023-05-10T00:01:17.542Z,101303.81
2023-05-10T00:03:46.543Z,101299.63
2023-05-10T00:06:15.802Z,101303.75
2023-05-10T00:08:44.777Z,101308.53
2023-05-10T00:11:13.741Z,101294.59
2023-05-10T00:13:42.767Z,101302.34
2023-05-10T00:16:14.267Z,101290.00
2023-05-10T00:18:43.380Z,101277.97
2023-05-10T00:21:12.245Z,101298.66
2023-05-10T00:23:41.200Z,101301.16
2023-05-10T00:26:10.215Z,101286.94
2023-05-10T00:28:40.588Z,101295.69
2023-05-10T00:31:09.571Z,101300.13
2023-05-10T00:33:40.140Z,101295.16
2023-05-10T00:36:09.953Z,101283.50
2023-05-10T00:38:39.167Z,101298.16
2023-05-10T00:41:08.245Z,101285.72
2023-05-10T00:43:39.094Z,101296.19
2023-05-10T00:46:08.618Z,101298.59
2023-05-10T00:48:39.627Z,101275.66
2023-05-10T00:51:08.690Z,101285.94
2023-05-10T00:53:37.948Z,101289.41
2023-05-10T00:56:07.432Z,101298.03
2023-05-10T00:58:36.760Z,101286.44
2023-05-10T01:01:07.345Z,101296.16
2023-05-10T01:03:36.753Z,101294.38
2023-05-10T01:06:07.708Z,101267.75
2023-05-10T01:08:36.892Z,101294.59
2023-05-10T01:11:05.959Z,101270.00
2023-05-10T01:13:38.399Z,101294.16
2023-05-10T01:16:08.849Z,101292.25
2023-05-10T01:18:42.402Z,101279.38
2023-05-10T01:21:23.443Z,101281.13
2023-05-10T01:24:29.534Z,101291.28
2023-05-10T01:27:28.645Z,101294.91
2023-05-10T01:30:28.405Z,101303.97
2023-05-10T01:33:04.353Z,101290.06
2023-05-10T01:35:39.762Z,101288.84
2023-05-10T01:38:25.349Z,101271.94
2023-05-10T01:41:08.157Z,101281.97
2023-05-10T01:43:50.535Z,101275.94
2023-05-10T01:46:26.979Z,101279.38
2023-05-10T01:49:01.442Z,101279.31
2023-05-10T01:51:38.702Z,101280.47
2023-05-10T01:54:10.459Z,101251.00
2023-05-10T01:56:41.945Z,101277.09
2023-05-10T01:59:20.488Z,101274.78
2023-05-10T02:01:51.223Z,101261.72
2023-05-10T02:04:24.165Z,101266.50
2023-05-10T02:06:56.050Z,101268.41
2023-05-10T02:09:27.701Z,101276.53
2023-05-10T02:11:59.115Z,101277.25
2023-05-10T02:14:29.279Z,101273.63
2023-05-10T02:16:59.273Z,101270.13
2023-05-10T02:19:32.582Z,101256.13
2023-05-10T02:22:04.078Z,101258.13
2023-05-10T02:24:37.058Z,101264.19
2023-05-10T02:27:06.947Z,101272.75
2023-05-10T02:29:36.751Z,101278.78
2023-05-10T02:32:06.634Z,101275.91
2023-05-10T02:34:37.729Z,101267.72
2023-05-10T02:37:07.766Z,101278.59
2023-05-10T02:39:37.406Z,101268.16
2023-05-10T02:42:07.828Z,101273.13
2023-05-10T02:44:39.987Z,101266.28
2023-05-10T02:47:09.303Z,101278.16
2023-05-10T02:49:39.712Z,101279.81
2023-05-10T02:52:10.535Z,101281.38
2023-05-10T02:54:46.019Z,101282.09
2023-05-10T02:57:20.501Z,101272.19
2023-05-10T02:59:49.569Z,101272.34
2023-05-10T03:02:19.801Z,101265.97
2023-05-10T03:04:50.563Z,101250.88
2023-05-10T03:07:22.357Z,101274.41
2023-05-10T03:09:52.048Z,101272.09
2023-05-10T03:12:29.459Z,101240.84
2023-05-10T03:15:05.926Z,101288.34
2023-05-10T03:17:43.432Z,101228.03
2023-05-10T03:20:22.855Z,101256.47
2023-05-10T03:22:55.864Z,101254.34
2023-05-10T03:25:25.638Z,101280.66
2023-05-10T03:27:56.690Z,101286.22
2023-05-10T03:30:27.098Z,101286.31
2023-05-10T03:32:56.718Z,101245.78
2023-05-10T03:35:27.159Z,101281.88
2023-05-10T03:37:56.086Z,101286.69
2023-05-10T03:40:25.841Z,101286.03
2023-05-10T03:42:54.930Z,101276.47
2023-05-10T03:45:24.318Z,101284.34
2023-05-10T03:47:53.315Z,101275.53
2023-05-10T03:50:23.706Z,101285.56
2023-05-10T03:52:54.849Z,101270.81
2023-05-10T03:55:24.443Z,101284.72
2023-05-10T03:57:54.988Z,101281.88
2023-05-10T04:00:25.380Z,101293.81
2023-05-10T04:02:57.339Z,101285.56
2023-05-10T04:05:26.672Z,101281.97
2023-05-10T04:07:57.269Z,101289.97
2023-05-10T04:10:26.356Z,101280.72
2023-05-10T04:12:55.332Z,101290.06
2023-05-10T04:15:24.639Z,101278.44
2023-05-10T04:17:54.727Z,101303.44
2023-05-10T04:20:24.308Z,101291.56
2023-05-10T04:22:53.382Z,101301.06
2023-05-10T04:25:23.835Z,101285.22
2023-05-10T04:27:52.797Z,101294.66
2023-05-10T04:30:22.119Z,101293.06
2023-05-10T04:32:51.172Z,101300.50
2023-05-10T04:35:20.310Z,101294.59
2023-05-10T04:37:50.005Z,101305.25
2023-05-10T04:40:19.401Z,101294.66
2023-05-10T04:42:49.971Z,101284.84
2023-05-10T04:45:19.339Z,101304.03
2023-05-10T04:47:48.461Z,101297.44
2023-05-10T04:50:17.857Z,101299.66
2023-05-10T04:52:47.136Z,101299.97
2023-05-10T04:55:16.553Z,101293.16
2023-05-10T04:57:46.030Z,101304.66
2023-05-10T05:00:17.889Z,101307.25
2023-05-10T05:02:47.596Z,101293.88
2023-05-10T05:05:17.157Z,101297.69
2023-05-10T05:07:46.005Z,101297.16
2023-05-10T05:10:15.271Z,101288.09
2023-05-10T05:12:44.601Z,101296.69
2023-05-10T05:15:13.696Z,101301.66
2023-05-10T05:17:44.223Z,101306.84
2023-05-10T05:20:14.228Z,101307.34
2023-05-10T05:22:43.495Z,101303.03
2023-05-10T05:25:12.801Z,101304.13
2023-05-10T05:27:41.894Z,101306.09
2023-05-10T05:30:12.240Z,101309.09
2023-05-10T05:32:41.518Z,101304.19
2023-05-10T05:35:12.083Z,101297.81
2023-05-10T05:37:44.251Z,101300.22
2023-05-10T05:40:41.683Z,101305.06
2023-05-10T05:43:11.167Z,101311.06
2023-05-10T05:45:40.139Z,101303.47
2023-05-10T05:48:10.180Z,101307.03
2023-05-10T05:50:40.927Z,101290.19
2023-05-10T05:53:10.930Z,101311.00
2023-05-10T05:55:39.881Z,101313.97
2023-05-10T05:58:08.807Z,101296.00
2023-05-10T06:00:38.162Z,101301.66
2023-05-10T06:03:08.182Z,101294.88
2023-05-10T06:05:37.281Z,101303.09
2023-05-10T06:08:08.030Z,101299.50
2023-05-10T06:10:39.394Z,101292.84
2023-05-10T06:13:09.004Z,101296.56
2023-05-10T06:15:38.626Z,101257.94
2023-05-10T06:18:08.215Z,101280.72
2023-05-10T06:20:37.504Z,101295.41
2023-05-10T06:23:10.533Z,101294.28
2023-05-10T06:25:39.862Z,101294.19
2023-05-10T06:28:09.704Z,101290.94
2023-05-10T06:30:39.563Z,101297.41
2023-05-10T06:33:10.271Z,101276.03
2023-05-10T06:35:41.058Z,101292.50
2023-05-10T06:38:12.710Z,101288.59
2023-05-10T06:40:45.272Z,101291.41
2023-05-10T06:43:15.746Z,101296.50
2023-05-10T06:45:45.490Z,101292.28
2023-05-10T06:48:15.256Z,101294.16
2023-05-10T06:50:48.545Z,101287.72
2023-05-10T06:53:21.386Z,101292.63
2023-05-10T06:56:00.660Z,101291.84
2023-05-10T06:58:30.253Z,101295.72
2023-05-10T07:01:06.567Z,101299.44
2023-05-10T07:03:37.558Z,101295.84
2023-05-10T07:06:21.607Z,101263.25
2023-05-10T07:09:05.687Z,101298.56
2023-05-10T07:11:35.736Z,101269.38
2023-05-10T07:14:05.568Z,101292.44
2023-05-10T07:16:36.268Z,101294.31
2023-05-10T07:19:07.095Z,101290.66
2023-05-10T07:21:37.599Z,101270.03
2023-05-10T07:24:09.435Z,101291.72
2023-05-10T07:26:40.034Z,101291.84
2023-05-10T07:29:10.345Z,101280.28
2023-05-10T07:31:45.102Z,101295.06
2023-05-10T07:34:14.793Z,101293.41
2023-05-10T07:36:44.626Z,101286.72
2023-05-10T07:39:24.414Z,101291.97
2023-05-10T07:41:58.734Z,101283.34
2023-05-10T07:44:28.806Z,101291.59
2023-05-10T07:47:01.193Z,101283.91
2023-05-10T07:49:36.561Z,101271.16
2023-05-10T07:52:07.959Z,101283.22
2023-05-10T07:54:54.255Z,101285.03
2023-05-10T07:57:25.884Z,101276.09
2023-05-10T07:59:57.112Z,101273.41
2023-05-10T08:02:26.727Z,101265.03
2023-05-10T08:04:56.884Z,101269.03
2023-05-10T08:07:29.357Z,101269.94
2023-05-10T08:10:03.040Z,101268.81
2023-05-10T08:12:32.597Z,101277.75
2023-05-10T08:15:01.577Z,101275.97
2023-05-10T08:17:32.739Z,101273.19
2023-05-10T08:20:04.315Z,101265.66
2023-05-10T08:22:33.402Z,101259.19
2023-05-10T08:25:03.799Z,101270.09
2023-05-10T08:27:34.934Z,101251.91
2023-05-10T08:30:04.333Z,101269.50
2023-05-10T08:32:36.000Z,101253.25
2023-05-10T08:35:05.140Z,101267.31
2023-05-10T08:37:34.232Z,101268.19
2023-05-10T08:40:05.616Z,101263.69
2023-05-10T08:42:39.042Z,101275.47
2023-05-10T08:45:10.463Z,101279.97
2023-05-10T08:47:40.946Z,101279.47
2023-05-10T08:50:10.674Z,101275.88
2023-05-10T08:52:41.641Z,101275.88
2023-05-10T08:55:12.425Z,101278.53
2023-05-10T08:57:52.324Z,101245.59
2023-05-10T09:00:24.013Z,101273.16
2023-05-10T09:02:53.448Z,101222.66
2023-05-10T09:05:22.512Z,101271.59
2023-05-10T09:07:51.675Z,101243.75
2023-05-10T09:10:22.844Z,101256.59
2023-05-10T09:12:54.068Z,101259.47
2023-05-10T09:15:26.455Z,101258.09
2023-05-10T09:18:00.465Z,101249.06
2023-05-10T09:20:29.791Z,101262.25
2023-05-10T09:22:58.814Z,101242.88
2023-05-10T09:25:29.546Z,101258.00
2023-05-10T09:27:58.651Z,101246.81
2023-05-10T09:30:29.428Z,101231.16
2023-05-10T09:32:59.573Z,101251.19
2023-05-10T09:35:30.382Z,101214.41
2023-05-10T09:38:03.289Z,101244.94
2023-05-10T09:40:34.847Z,101249.47
2023-05-10T09:43:07.032Z,101248.88
2023-05-10T09:45:39.197Z,101228.31
2023-05-10T09:48:09.187Z,101243.81
2023-05-10T09:50:38.859Z,101248.03
2023-05-10T09:53:07.949Z,101244.38
2023-05-10T09:55:56.455Z,101215.41
2023-05-10T09:58:26.488Z,101228.78
2023-05-10T10:00:58.028Z,101219.69
2023-05-10T10:03:33.392Z,101240.09
2023-05-10T10:06:09.433Z,101241.75
2023-05-10T10:08:42.956Z,101219.03
2023-05-10T10:11:13.700Z,101248.06
2023-05-10T10:13:42.966Z,101235.75
2023-05-10T10:16:12.087Z,101237.47
2023-05-10T10:18:43.446Z,101208.06
2023-05-10T10:21:13.150Z,101245.34
2023-05-10T10:23:42.238Z,101232.06
2023-05-10T10:26:17.073Z,101238.81
2023-05-10T10:28:54.339Z,101249.97
2023-05-10T10:31:35.410Z,101220.53
2023-05-10T10:34:09.343Z,101193.44
2023-05-10T10:36:54.442Z,101206.88
2023-05-10T10:39:24.102Z,101239.84
2023-05-10T10:41:56.472Z,101234.06
2023-05-10T10:44:40.608Z,101238.41
2023-05-10T10:47:32.323Z,101247.25
2023-05-10T10:50:10.764Z,101239.00
2023-05-10T10:53:02.086Z,101149.91
2023-05-10T10:56:10.576Z,101240.50
2023-05-10T10:58:46.224Z,101238.28
2023-05-10T11:01:20.336Z,101224.00
2023-05-10T11:04:20.103Z,101226.22
2023-05-10T11:06:49.303Z,101221.66
2023-05-10T11:09:20.344Z,101224.38
2023-05-10T11:11:59.468Z,101225.75
2023-05-10T11:14:34.150Z,101219.66
2023-05-10T11:17:26.159Z,101219.34
2023-05-10T11:20:33.456Z,101214.00
2023-05-10T11:23:22.139Z,101224.50
2023-05-10T11:25:57.105Z,101193.41
2023-05-10T11:28:29.292Z,101205.50
2023-05-10T11:31:00.706Z,101205.72
2023-05-10T11:33:30.511Z,101209.16
2023-05-10T11:36:04.010Z,101199.84
2023-05-10T11:38:37.578Z,101207.53
2023-05-10T11:41:06.612Z,101201.44
2023-05-10T11:43:37.871Z,101185.34
2023-05-10T11:46:18.952Z,101202.00
2023-05-10T11:48:49.091Z,101194.06
2023-05-10T11:52:37.911Z,101200.41
2023-05-10T11:58:06.579Z,101033.38
2023-05-10T12:00:40.050Z,101204.44
2023-05-10T12:03:15.076Z,101176.66
2023-05-10T12:05:46.925Z,101203.59
2023-05-10T12:08:17.596Z,101190.69
2023-05-10T12:10:46.626Z,101201.69
2023-05-10T12:13:16.441Z,101192.88
2023-05-10T12:15:46.092Z,101202.72
2023-05-10T12:18:17.235Z,101189.34
2023-05-10T12:20:46.280Z,101199.84
2023-05-10T12:23:15.639Z,101198.38
2023-05-10T12:25:45.303Z,101173.22
2023-05-10T12:28:14.635Z,101200.13
2023-05-10T12:30:46.103Z,101176.56
2023-05-10T12:33:19.819Z,101200.41
2023-05-10T12:35:52.781Z,101191.84
2023-05-10T12:38:32.059Z,101174.41
2023-05-10T12:41:02.051Z,101185.75
2023-05-10T12:43:34.786Z,101187.75
2023-05-10T12:46:17.211Z,101159.16
2023-05-10T12:49:00.223Z,101183.41
2023-05-10T12:51:46.808Z,101188.00
2023-05-10T12:54:15.878Z,101189.63
2023-05-10T12:56:45.613Z,101171.03
2023-05-10T12:59:15.063Z,101186.22
2023-05-10T13:01:46.282Z,101190.16
2023-05-10T13:04:17.090Z,101189.28
2023-05-10T13:06:46.533Z,101173.88
2023-05-10T13:09:16.180Z,101172.47
2023-05-10T13:11:46.337Z,101181.50
2023-05-10T13:14:35.418Z,101171.75
2023-05-10T13:17:23.015Z,101094.63
2023-05-10T13:20:02.376Z,101141.53
2023-05-10T13:22:39.875Z,101173.09
2023-05-10T13:25:10.623Z,101172.16
2023-05-10T13:27:40.164Z,101149.59
2023-05-10T13:30:11.410Z,101172.41
2023-05-10T13:32:41.798Z,101180.19
2023-05-10T13:35:13.003Z,101177.94
2023-05-10T13:37:45.016Z,101172.50
2023-05-10T13:40:14.785Z,101158.50
2023-05-10T13:42:44.846Z,101168.94
2023-05-10T13:45:14.788Z,101156.97
2023-05-10T13:47:48.778Z,101173.00
2023-05-10T13:50:21.337Z,101127.53
2023-05-10T13:52:50.609Z,101165.16
2023-05-10T13:55:20.454Z,101175.09
2023-05-10T13:57:50.147Z,101143.00
2023-05-10T14:00:23.014Z,101158.19
2023-05-10T14:02:53.485Z,101147.91
2023-05-10T14:05:30.618Z,101159.41
2023-05-10T14:08:01.322Z,101147.28
2023-05-10T14:10:47.514Z,101151.88
2023-05-10T14:13:21.341Z,101157.50
2023-05-10T14:15:58.473Z,101159.84
2023-05-10T14:18:29.550Z,101158.41
2023-05-10T14:21:09.043Z,101147.53
2023-05-10T14:23:38.501Z,101148.56
2023-05-10T14:26:08.098Z,101160.25
2023-05-10T14:28:37.404Z,101156.03
2023-05-10T14:31:12.032Z,101161.69
2023-05-10T14:34:46.392Z,101116.47
2023-05-10T14:37:17.292Z,101147.09
2023-05-10T14:39:46.896Z,101128.19
2023-05-10T14:42:19.976Z,101156.09
2023-05-10T14:44:49.217Z,101099.44
2023-05-10T14:47:20.621Z,101143.31
2023-05-10T14:49:53.730Z,101138.16
2023-05-10T14:52:34.264Z,101134.38
2023-05-10T14:55:17.215Z,101150.19
2023-05-10T14:57:51.719Z,101141.34
2023-05-10T15:00:21.520Z,101142.34
2023-05-10T15:02:51.944Z,101146.06
2023-05-10T15:05:21.524Z,101147.34
2023-05-10T15:07:52.653Z,101147.94
2023-05-10T15:10:22.161Z,101091.81
2023-05-10T15:12:52.558Z,101138.41
2023-05-10T15:15:33.668Z,101142.25
2023-05-10T15:18:07.622Z,101126.06
2023-05-10T15:20:37.368Z,101134.00
2023-05-10T15:23:08.035Z,101135.69
2023-05-10T15:25:38.567Z,101143.16
2023-05-10T15:28:10.952Z,101138.75
2023-05-10T15:30:45.933Z,101122.22
2023-05-10T15:33:16.878Z,101120.06
2023-05-10T15:35:46.230Z,101111.59
2023-05-10T15:38:25.582Z,101130.63
2023-05-10T15:40:58.783Z,101128.25
2023-05-10T15:43:30.653Z,101140.03
2023-05-10T15:46:00.726Z,101122.53
2023-05-10T15:48:33.666Z,101126.63
2023-05-10T15:51:14.547Z,101108.91
2023-05-10T15:54:05.817Z,101122.00
2023-05-10T15:56:39.285Z,101126.72
2023-05-10T15:59:10.756Z,101064.81
2023-05-10T16:02:16.622Z,101128.69
2023-05-10T16:04:52.089Z,101097.25
2023-05-10T16:07:21.929Z,101107.47
2023-05-10T16:09:53.912Z,101123.50
2023-05-10T16:12:27.139Z,101118.13
2023-05-10T16:15:00.052Z,101136.56
2023-05-10T16:17:29.772Z,101125.50
2023-05-10T16:20:00.548Z,101132.25
2023-05-10T16:22:32.254Z,101132.44
2023-05-10T16:25:06.760Z,101131.59
2023-05-10T16:27:38.699Z,101136.03
2023-05-10T16:30:22.293Z,101143.75
2023-05-10T16:33:02.009Z,101145.16
2023-05-10T16:35:37.559Z,101139.63
2023-05-10T16:38:07.078Z,101134.22
2023-05-10T16:40:40.418Z,101109.28
2023-05-10T16:43:09.534Z,101142.69
2023-05-10T16:45:38.629Z,101138.94
2023-05-10T16:48:10.657Z,101129.91
2023-05-10T16:50:41.751Z,101109.91
2023-05-10T16:53:12.869Z,101133.44
2023-05-10T16:55:49.141Z,101140.91
2023-05-10T16:58:18.367Z,101090.44
2023-05-10T17:00:48.520Z,101141.03
2023-05-10T17:03:18.179Z,101129.56
2023-05-10T17:05:47.959Z,101138.78
2023-05-10T17:08:28.018Z,101152.56
2023-05-10T17:11:03.593Z,101154.63
2023-05-10T17:13:33.111Z,101157.09
2023-05-10T17:16:04.752Z,101145.75
2023-05-10T17:18:34.592Z,101156.13
2023-05-10T17:21:03.722Z,101152.69
2023-05-10T17:23:33.551Z,101128.19
2023-05-10T17:26:06.756Z,101164.63
2023-05-10T17:28:38.575Z,101167.78
2023-05-10T17:31:08.868Z,101157.69
2023-05-10T17:33:38.814Z,101178.41
2023-05-10T17:36:10.655Z,101171.13
2023-05-10T17:38:40.036Z,101179.56
2023-05-10T17:41:10.399Z,101160.66
2023-05-10T17:43:39.812Z,101180.16
2023-05-10T17:46:09.368Z,101182.78
2023-05-10T17:48:41.137Z,101177.06
2023-05-10T17:51:12.101Z,101119.03
2023-05-10T17:53:43.189Z,101185.31
2023-05-10T17:56:16.968Z,101176.38
2023-05-10T17:58:46.875Z,101186.91
2023-05-10T18:01:17.736Z,101178.44
2023-05-10T18:03:46.781Z,101170.88
2023-05-10T18:06:17.738Z,101198.53
2023-05-10T18:08:51.607Z,101192.75
2023-05-10T18:11:24.971Z,101203.88
2023-05-10T18:13:54.372Z,101204.13
2023-05-10T18:16:23.484Z,101210.00
2023-05-10T18:18:53.473Z,101202.41
2023-05-10T18:21:22.979Z,101200.88
2023-05-10T18:23:52.805Z,101211.34
2023-05-10T18:26:22.509Z,101207.84
2023-05-10T18:28:55.361Z,101208.19
2023-05-10T18:31:24.920Z,101217.59
2023-05-10T18:33:54.410Z,101205.00
2023-05-10T18:36:24.708Z,101192.06
2023-05-10T18:38:53.820Z,101219.53
2023-05-10T18:41:23.651Z,101218.06
2023-05-10T18:43:54.650Z,101223.28
2023-05-10T18:46:24.547Z,101224.13
2023-05-10T18:48:54.375Z,101156.69
2023-05-10T18:51:23.516Z,101210.34
2023-05-10T18:53:53.109Z,101224.34
2023-05-10T18:56:23.750Z,101200.94
2023-05-10T18:58:54.608Z,101196.97
2023-05-10T19:01:24.484Z,101213.56
2023-05-10T19:03:54.125Z,101220.81
2023-05-10T19:06:23.500Z,101207.34
2023-05-10T19:08:52.974Z,101211.78
2023-05-10T19:11:23.023Z,101226.53
2023-05-10T19:13:54.150Z,101210.22
2023-05-10T19:16:24.321Z,101215.78
2023-05-10T19:18:54.756Z,101218.16
2023-05-10T19:21:25.954Z,101216.63
2023-05-10T19:23:56.888Z,101219.91
2023-05-10T19:26:29.172Z,101213.41
2023-05-10T19:29:07.025Z,101226.22
2023-05-10T19:31:36.739Z,101219.22
2023-05-10T19:34:06.694Z,101229.16
2023-05-10T19:36:36.402Z,101235.09
2023-05-10T19:39:05.779Z,101217.63
2023-05-10T19:41:34.765Z,101232.66
2023-05-10T19:44:05.216Z,101184.88
2023-05-10T19:46:34.628Z,101226.78
2023-05-10T19:49:04.466Z,101223.16
2023-05-10T19:51:44.632Z,101226.03
2023-05-10T19:54:14.173Z,101220.97
2023-05-10T19:56:43.755Z,101221.56
2023-05-10T19:59:14.266Z,101231.75
2023-05-10T20:01:43.456Z,101241.66
2023-05-10T20:04:12.905Z,101215.56
2023-05-10T20:06:42.446Z,101221.56
2023-05-10T20:09:13.858Z,101225.84
2023-05-10T20:11:43.246Z,101223.94
2023-05-10T20:14:14.955Z,101221.19
2023-05-10T20:16:46.781Z,101241.63
2023-05-10T20:19:17.519Z,101222.22
2023-05-10T20:21:46.514Z,101230.75
2023-05-10T20:24:15.431Z,101234.75
2023-05-10T20:26:44.732Z,101240.69
2023-05-10T20:29:17.215Z,101235.63
2023-05-10T20:31:46.651Z,101237.81
2023-05-10T20:34:15.550Z,101232.63
2023-05-10T20:36:44.681Z,101233.38
2023-05-10T20:39:17.106Z,101224.81
2023-05-10T20:41:46.642Z,101226.06
2023-05-10T20:44:17.257Z,101230.50
2023-05-10T20:46:48.021Z,101227.19
2023-05-10T20:49:17.664Z,101224.59
2023-05-10T20:51:46.855Z,101165.97
2023-05-10T20:54:16.119Z,101187.25
2023-05-10T20:56:45.330Z,101219.69
2023-05-10T20:59:14.409Z,101230.91
2023-05-10T21:01:45.611Z,101208.16
2023-05-10T21:04:14.783Z,101231.25
2023-05-10T21:06:44.550Z,101233.13
2023-05-10T21:09:13.846Z,101225.09
2023-05-10T21:11:43.701Z,101208.66
2023-05-10T21:14:12.998Z,101206.34
2023-05-10T21:16:44.964Z,101216.06
2023-05-10T21:19:17.169Z,101230.78
2023-05-10T21:21:46.554Z,101232.03
2023-05-10T21:24:16.782Z,101206.13
2023-05-10T21:26:47.777Z,101215.03
2023-05-10T21:29:23.621Z,101240.44
2023-05-10T21:31:53.966Z,101233.41
2023-05-10T21:34:29.274Z,101218.78
2023-05-10T21:36:59.870Z,101225.16
2023-05-10T21:39:29.349Z,101236.66
2023-05-10T21:42:00.655Z,101223.38
2023-05-10T21:44:30.850Z,101213.31
2023-05-10T21:47:00.216Z,101229.78
2023-05-10T21:49:30.669Z,101228.50
2023-05-10T21:52:01.517Z,101227.38
2023-05-10T21:54:30.850Z,101221.03
2023-05-10T21:56:59.996Z,101237.66
2023-05-10T21:59:29.409Z,101232.34
2023-05-10T22:01:58.909Z,101215.19
2023-05-10T22:04:31.025Z,101236.44
2023-05-10T22:07:00.438Z,101230.28
2023-05-10T22:09:48.322Z,101232.81
2023-05-10T22:12:17.889Z,101235.94
2023-05-10T22:14:56.533Z,101233.78
2023-05-10T22:17:36.209Z,101213.13
2023-05-10T22:20:08.101Z,101217.75
2023-05-10T22:22:38.104Z,101234.91
2023-05-10T22:25:08.493Z,101227.03
2023-05-10T22:27:37.842Z,101247.22
2023-05-10T22:30:09.797Z,101237.09
2023-05-10T22:32:38.925Z,101229.16
2023-05-10T22:35:10.413Z,101239.78
2023-05-10T22:37:39.368Z,101176.53
2023-05-10T22:40:10.431Z,101244.56
2023-05-10T22:42:40.902Z,101244.75
2023-05-10T22:45:11.063Z,101242.69
2023-05-10T22:47:40.033Z,101233.97
2023-05-10T22:50:15.271Z,101242.88
2023-05-10T22:52:44.349Z,101243.91
2023-05-10T22:55:13.450Z,101235.69
2023-05-10T22:57:42.404Z,101242.88
2023-05-10T23:00:12.670Z,101235.00
2023-05-10T23:02:45.276Z,101231.19
2023-05-10T23:05:15.988Z,101237.91
2023-05-10T23:07:45.191Z,101242.88
2023-05-10T23:10:14.378Z,101241.72
2023-05-10T23:12:43.963Z,101233.19
2023-05-10T23:15:13.264Z,101242.28
2023-05-10T23:17:43.812Z,101247.88
2023-05-10T23:20:16.360Z,101244.38
2023-05-10T23:22:46.510Z,101228.34
2023-05-10T23:25:15.680Z,101240.78
2023-05-10T23:27:44.799Z,101240.63
2023-05-10T23:30:14.684Z,101232.72
2023-05-10T23:32:51.823Z,101241.84
2023-05-10T23:35:22.676Z,101242.41
2023-05-10T23:38:02.881Z,101216.94
2023-05-10T23:42:03.122Z,101251.91
2023-05-10T23:44:23.635Z,101251.88
2023-05-10T23:46:54.199Z,101255.91
2023-05-10T23:49:23.405Z,101251.31
2023-05-10T23:51:55.684Z,101249.91
2023-05-10T23:54:24.773Z,101251.22
2023-05-10T23:56:54.125Z,101262.16
2023-05-10T23:59:23.353Z,101261.09
